Time;durP1;ratioP1;P1;durP2;ratioP2;P2;SDS_P1;SDS_P2;PMS_P1;PMS_P2;Temp;Humidity;BMP_temperature;BMP_pressure;BME280_temperature;BME280_humidity;BME280_pressure;Samples;Min_cycle;Max_cycle;Signal;HPM_P1;HPM_P2
2021/09/06 00:01:48;;;;;;;7.30;4.45;;;16.70;99.90;;;;;;5023141;28;20025;-84
2021/09/06 00:04:14;;;;;;;9.93;4.68;;;16.70;99.90;;;;;;5023473;28;20042;-85
2021/09/06 00:06:40;;;;;;;9.80;5.20;;;16.60;99.90;;;;;;5024251;28;20085;-84
2021/09/06 00:09:07;;;;;;;9.73;5.22;;;16.60;99.90;;;;;;5014503;28;20574;-84
2021/09/06 00:11:33;;;;;;;6.95;4.55;;;16.90;99.90;;;;;;5004654;28;20033;-84
2021/09/06 00:13:58;;;;;;;9.82;4.80;;;16.60;99.90;;;;;;4998585;28;20030;-84
2021/09/06 00:16:24;;;;;;;7.13;4.38;;;16.60;99.90;;;;;;5025207;28;20060;-85
2021/09/06 00:18:50;;;;;;;9.68;4.93;;;16.50;99.90;;;;;;5018563;28;20049;-85
2021/09/06 00:21:16;;;;;;;8.43;4.68;;;16.60;99.90;;;;;;5023335;28;20060;-84
2021/09/06 00:23:41;;;;;;;9.20;4.60;;;16.60;99.90;;;;;;5025077;28;20113;-85
2021/09/06 00:26:07;;;;;;;10.77;4.82;;;16.60;99.90;;;;;;5008304;28;20073;-85
2021/09/06 00:28:33;;;;;;;8.90;5.30;;;16.60;99.90;;;;;;5001418;28;20054;-85
2021/09/06 00:30:58;;;;;;;8.13;4.70;;;16.50;99.90;;;;;;5002722;28;20026;-83
2021/09/06 00:33:24;;;;;;;7.53;4.60;;;16.50;99.90;;;;;;5001622;28;20026;-83
2021/09/06 00:35:50;;;;;;;8.57;4.70;;;16.40;99.90;;;;;;5022095;28;20068;-83
2021/09/06 00:38:17;;;;;;;7.90;4.78;;;16.40;99.90;;;;;;5022381;28;20076;-84
2021/09/06 00:40:47;;;;;;;10.52;4.80;;;16.50;99.90;;;;;;5005768;28;20037;-84
2021/09/06 00:43:14;;;;;;;8.35;4.68;;;16.40;99.90;;;;;;5025171;28;20022;-84
2021/09/06 00:45:41;;;;;;;9.38;4.65;;;16.40;99.90;;;;;;5024024;28;20093;-84
2021/09/06 00:48:07;;;;;;;7.97;4.97;;;16.50;99.90;;;;;;5033477;22;20054;-85
2021/09/06 00:50:34;;;;;;;10.25;5.10;;;16.40;99.90;;;;;;5005544;28;20037;-86
2021/09/06 00:53:01;;;;;;;8.75;4.82;;;16.40;99.90;;;;;;4991111;28;20029;-85
2021/09/06 00:55:27;;;;;;;8.50;5.05;;;16.40;99.90;;;;;;4991506;28;20035;-85
2021/09/06 00:57:54;;;;;;;8.32;5.20;;;16.40;99.90;;;;;;5007162;28;20474;-85
2021/09/06 01:00:20;;;;;;;10.25;5.07;;;16.40;99.90;;;;;;4995519;28;20023;-85
2021/09/06 01:02:46;;;;;;;11.70;5.72;;;16.30;99.90;;;;;;4974797;28;20030;-85
2021/09/06 01:05:13;;;;;;;10.52;5.13;;;16.40;99.90;;;;;;4997577;28;20030;-85
2021/09/06 01:07:39;;;;;;;8.93;5.25;;;16.30;99.90;;;;;;4997240;28;20109;-85
2021/09/06 01:10:11;;;;;;;11.43;5.90;;;16.30;99.90;;;;;;5012265;28;20064;-85
2021/09/06 01:12:38;;;;;;;9.75;5.93;;;16.30;99.90;;;;;;5010614;28;20048;-85
2021/09/06 01:15:05;;;;;;;10.38;5.47;;;16.30;99.90;;;;;;5000240;28;20073;-85
2021/09/06 01:17:31;;;;;;;9.70;5.35;;;16.30;99.90;;;;;;4990483;28;20032;-86
2021/09/06 01:19:56;;;;;;;8.95;5.30;;;16.30;99.90;;;;;;4990780;28;20093;-86
2021/09/06 01:22:22;;;;;;;10.57;4.65;;;16.30;99.90;;;;;;4997344;28;20478;-86
2021/09/06 01:24:48;;;;;;;8.23;4.80;;;16.30;99.90;;;;;;4989380;28;20019;-85
2021/09/06 01:27:15;;;;;;;8.35;5.00;;;16.20;99.90;;;;;;4992344;28;20105;-85
2021/09/06 01:29:40;;;;;;;9.80;5.43;;;16.20;99.90;;;;;;4991830;28;20471;-85
2021/09/06 01:32:07;;;;;;;9.20;5.50;;;16.20;99.90;;;;;;4991540;28;20038;-85
2021/09/06 01:34:33;;;;;;;9.10;5.50;;;16.20;99.90;;;;;;4992853;28;20033;-85
2021/09/06 01:36:59;;;;;;;9.38;5.57;;;16.10;99.90;;;;;;4992220;28;20026;-86
2021/09/06 01:39:25;;;;;;;8.50;5.63;;;16.10;99.90;;;;;;4995659;28;20029;-85
2021/09/06 01:41:51;;;;;;;11.75;5.90;;;16.00;99.90;;;;;;4995891;28;20030;-85
2021/09/06 01:44:16;;;;;;;9.02;5.47;;;16.00;99.90;;;;;;4995577;28;20030;-85
2021/09/06 01:46:42;;;;;;;8.35;5.20;;;16.00;99.90;;;;;;4994315;28;20445;-85
2021/09/06 01:49:07;;;;;;;9.00;5.50;;;16.00;99.90;;;;;;4994285;28;20034;-85
2021/09/06 01:51:33;;;;;;;10.20;5.80;;;16.00;99.90;;;;;;4994578;28;20121;-85
2021/09/06 01:53:59;;;;;;;8.20;5.43;;;15.90;99.90;;;;;;4995551;28;20390;-85
2021/09/06 01:56:24;;;;;;;10.07;5.95;;;16.00;99.90;;;;;;4999151;28;20026;-85
2021/09/06 01:58:51;;;;;;;9.50;5.72;;;15.90;99.90;;;;;;5020958;28;20115;-85
2021/09/06 02:01:16;;;;;;;8.10;5.28;;;15.90;99.90;;;;;;4995281;28;20033;-86
2021/09/06 02:03:42;;;;;;;9.82;5.75;;;15.80;99.90;;;;;;4994426;28;20030;-85
2021/09/06 02:06:08;;;;;;;10.80;6.30;;;15.90;99.90;;;;;;4995721;28;20018;-85
2021/09/06 02:08:34;;;;;;;11.27;5.47;;;15.80;99.90;;;;;;4993604;28;20031;-86
2021/09/06 02:10:59;;;;;;;10.07;5.70;;;15.70;99.90;;;;;;4993990;28;20509;-85
2021/09/06 02:13:25;;;;;;;10.73;5.35;;;15.80;99.90;;;;;;4998230;28;20060;-85
2021/09/06 02:15:51;;;;;;;9.73;5.72;;;15.70;99.90;;;;;;4995163;28;20445;-85
2021/09/06 02:18:18;;;;;;;10.27;5.60;;;15.80;99.90;;;;;;4993682;28;20507;-85
2021/09/06 02:20:43;;;;;;;10.27;5.78;;;15.70;99.90;;;;;;4993851;28;20022;-85
2021/09/06 02:23:09;;;;;;;12.23;6.35;;;15.60;99.90;;;;;;5004912;28;20367;-85
2021/09/06 02:25:35;;;;;;;10.05;5.70;;;15.70;99.90;;;;;;5012837;28;20122;-85
2021/09/06 02:28:00;;;;;;;10.73;5.63;;;15.70;99.90;;;;;;5005127;28;20021;-85
2021/09/06 02:30:26;;;;;;;9.27;5.93;;;15.70;99.90;;;;;;5016471;28;20039;-85
2021/09/06 02:32:52;;;;;;;8.48;5.43;;;15.60;99.90;;;;;;5008438;28;20034;-86
2021/09/06 02:35:17;;;;;;;12.18;5.85;;;15.60;99.90;;;;;;4993105;28;20089;-85
2021/09/06 02:37:43;;;;;;;8.93;5.50;;;15.60;99.90;;;;;;4994255;28;20027;-85
2021/09/06 02:40:11;;;;;;;9.73;5.65;;;15.50;99.90;;;;;;5000770;28;20021;-85
2021/09/06 02:42:37;;;;;;;9.88;6.05;;;15.50;99.90;;;;;;5003087;28;20034;-85
2021/09/06 02:45:03;;;;;;;9.48;5.57;;;15.50;99.90;;;;;;4993853;28;20042;-85
2021/09/06 02:47:29;;;;;;;10.18;5.80;;;15.50;99.90;;;;;;4996603;28;20483;-85
2021/09/06 02:49:57;;;;;;;9.90;5.80;;;15.40;99.90;;;;;;4993170;28;20038;-85
2021/09/06 02:52:23;;;;;;;10.05;5.55;;;15.40;99.90;;;;;;4993637;28;20388;-85
2021/09/06 02:54:49;;;;;;;10.23;6.00;;;15.40;99.90;;;;;;4993277;28;20039;-85
2021/09/06 02:57:15;;;;;;;9.18;5.60;;;15.40;99.90;;;;;;4999527;28;20021;-85
2021/09/06 02:59:40;;;;;;;9.30;5.28;;;15.30;99.90;;;;;;5033073;28;20559;-85
2021/09/06 03:02:06;;;;;;;9.48;5.85;;;15.30;99.90;;;;;;4983131;28;20824;-86
2021/09/06 03:04:31;;;;;;;12.85;5.90;;;15.20;99.90;;;;;;4993185;28;20062;-85
2021/09/06 03:06:57;;;;;;;12.55;6.47;;;15.20;99.90;;;;;;4993001;28;20034;-85
2021/09/06 03:09:23;;;;;;;8.77;5.85;;;15.20;99.90;;;;;;4998696;28;20084;-85
2021/09/06 03:11:48;;;;;;;12.52;5.80;;;15.10;99.90;;;;;;5013553;28;20037;-85
2021/09/06 03:14:14;;;;;;;10.45;5.90;;;15.10;99.90;;;;;;5012188;28;20398;-85
2021/09/06 03:16:40;;;;;;;9.55;5.88;;;15.10;99.90;;;;;;4995994;28;20040;-85
2021/09/06 03:19:05;;;;;;;9.10;5.50;;;15.10;99.90;;;;;;4996890;28;20037;-85
2021/09/06 03:21:31;;;;;;;8.88;5.68;;;15.00;99.90;;;;;;4993716;28;20467;-85
2021/09/06 03:23:56;;;;;;;10.05;5.80;;;15.00;99.90;;;;;;4992786;28;20475;-85
2021/09/06 03:26:22;;;;;;;10.23;5.68;;;15.10;99.90;;;;;;4994058;28;20060;-85
2021/09/06 03:28:48;;;;;;;15.13;5.60;;;14.90;99.90;;;;;;4994394;28;20085;-85
2021/09/06 03:31:13;;;;;;;10.32;5.70;;;14.90;99.90;;;;;;4998005;28;20118;-85
2021/09/06 03:33:39;;;;;;;9.90;5.55;;;14.90;99.90;;;;;;5015338;28;20408;-86
2021/09/06 03:36:05;;;;;;;9.80;5.70;;;14.80;99.90;;;;;;5026617;28;20033;-86
2021/09/06 03:38:31;;;;;;;10.40;5.72;;;14.90;99.90;;;;;;4993510;28;20557;-85
2021/09/06 03:40:57;;;;;;;9.07;5.57;;;14.80;99.90;;;;;;4992371;28;20033;-85
2021/09/06 03:43:23;;;;;;;9.52;5.85;;;14.80;99.90;;;;;;4992340;28;20030;-85
2021/09/06 03:45:48;;;;;;;9.25;5.07;;;14.80;99.90;;;;;;4993839;28;20034;-85
2021/09/06 03:48:14;;;;;;;10.20;6.43;;;14.70;99.90;;;;;;4991459;28;20032;-85
2021/09/06 03:50:39;;;;;;;9.27;5.78;;;14.70;99.90;;;;;;4991974;28;20026;-86
2021/09/06 03:53:05;;;;;;;10.82;5.78;;;14.70;99.90;;;;;;4991758;28;20417;-85
2021/09/06 03:55:30;;;;;;;10.80;6.20;;;14.70;99.90;;;;;;4991874;28;20033;-85
2021/09/06 03:57:56;;;;;;;11.00;6.60;;;14.70;99.90;;;;;;4992570;28;20026;-87
2021/09/06 04:00:22;;;;;;;9.25;6.10;;;14.70;99.90;;;;;;4992971;28;20026;-86
2021/09/06 04:02:47;;;;;;;11.52;7.07;;;14.60;99.90;;;;;;4992030;28;20023;-85
2021/09/06 04:05:13;;;;;;;9.85;5.93;;;14.60;99.90;;;;;;4992036;28;20030;-85
2021/09/06 04:07:39;;;;;;;9.60;6.30;;;14.60;99.90;;;;;;4991369;28;20475;-85
2021/09/06 04:10:05;;;;;;;10.18;6.47;;;14.60;99.90;;;;;;4991932;28;20062;-85
2021/09/06 04:12:31;;;;;;;9.30;5.80;;;14.60;99.90;;;;;;4993194;28;20042;-85
2021/09/06 04:14:56;;;;;;;10.55;6.65;;;14.50;99.90;;;;;;4995912;28;20042;-85
2021/09/06 04:17:22;;;;;;;9.88;6.45;;;14.50;99.90;;;;;;4991270;28;20505;-85
2021/09/06 04:19:48;;;;;;;10.45;6.47;;;14.50;99.90;;;;;;4994033;28;20026;-85
2021/09/06 04:22:13;;;;;;;11.57;6.70;;;14.40;99.90;;;;;;4992093;28;20034;-85
2021/09/06 04:24:39;;;;;;;12.20;7.35;;;14.40;99.90;;;;;;4993184;28;20058;-85
2021/09/06 04:27:04;;;;;;;11.55;7.00;;;14.40;99.90;;;;;;4992022;28;20038;-85
2021/09/06 04:29:30;;;;;;;14.38;7.32;;;14.40;99.90;;;;;;4993030;28;20462;-85
2021/09/06 04:31:56;;;;;;;13.18;7.28;;;14.30;99.90;;;;;;5008763;28;20021;-86
2021/09/06 04:34:21;;;;;;;11.48;6.93;;;14.50;99.90;;;;;;5014023;28;20084;-85
2021/09/06 04:36:47;;;;;;;13.23;7.20;;;14.30;99.90;;;;;;5031582;28;20087;-86
2021/09/06 04:39:12;;;;;;;12.60;7.43;;;14.30;99.90;;;;;;4983362;28;20042;-85
2021/09/06 04:41:38;;;;;;;10.20;7.07;;;14.50;99.90;;;;;;4990804;28;20482;-85
2021/09/06 04:44:04;;;;;;;11.95;7.40;;;14.30;99.90;;;;;;4990902;28;20064;-85
2021/09/06 04:46:30;;;;;;;12.80;7.20;;;14.30;99.90;;;;;;4995405;28;20129;-85
2021/09/06 04:48:55;;;;;;;15.65;7.18;;;14.20;99.90;;;;;;5008952;28;20045;-85
2021/09/06 04:51:21;;;;;;;11.35;6.72;;;14.20;99.90;;;;;;5009586;28;20545;-85
2021/09/06 04:53:46;;;;;;;12.30;7.15;;;14.30;99.90;;;;;;4993266;28;20052;-85
2021/09/06 04:56:13;;;;;;;11.68;7.90;;;14.30;99.90;;;;;;4992075;28;20250;-85
2021/09/06 04:58:39;;;;;;;11.00;6.75;;;14.30;99.90;;;;;;4989338;28;20027;-86
2021/09/06 05:01:05;;;;;;;11.80;6.50;;;14.10;99.90;;;;;;4973692;28;20617;-85
2021/09/06 05:03:31;;;;;;;11.27;6.97;;;14.20;99.90;;;;;;4991577;28;20110;-85
2021/09/06 05:06:00;;;;;;;10.35;6.88;;;14.20;99.90;;;;;;4991236;28;20030;-85
2021/09/06 05:08:26;;;;;;;10.00;6.72;;;14.20;99.90;;;;;;4990812;28;20028;-85
2021/09/06 05:10:53;;;;;;;11.88;6.40;;;14.20;99.90;;;;;;4991378;28;20030;-86
2021/09/06 05:13:19;;;;;;;10.95;6.68;;;14.10;99.90;;;;;;5001102;28;20030;-86
2021/09/06 05:15:44;;;;;;;11.25;6.43;;;14.10;99.90;;;;;;5014358;28;20445;-86
2021/09/06 05:18:13;;;;;;;11.68;6.85;;;14.10;99.90;;;;;;5013717;28;20029;-87
2021/09/06 05:20:39;;;;;;;11.70;6.80;;;14.00;99.90;;;;;;4996741;28;20026;-84
2021/09/06 05:23:04;;;;;;;11.32;7.32;;;14.20;99.90;;;;;;4995434;28;20065;-84
2021/09/06 05:25:31;;;;;;;12.02;7.13;;;14.30;99.90;;;;;;5013049;28;20057;-84
2021/09/06 05:27:56;;;;;;;11.73;7.05;;;14.20;99.90;;;;;;5012503;28;20034;-85
2021/09/06 05:30:22;;;;;;;11.38;7.18;;;14.20;99.90;;;;;;5011435;28;20040;-85
2021/09/06 05:32:48;;;;;;;10.15;6.85;;;14.30;99.90;;;;;;5024349;28;20354;-84
2021/09/06 05:35:14;;;;;;;12.60;7.03;;;14.40;99.90;;;;;;5034275;28;20120;-84
2021/09/06 05:37:40;;;;;;;11.95;7.45;;;14.30;99.90;;;;;;5019070;28;20057;-84
2021/09/06 05:40:06;;;;;;;10.38;6.75;;;14.40;99.90;;;;;;4996199;28;20565;-86
2021/09/06 05:42:32;;;;;;;15.60;7.40;;;14.40;99.90;;;;;;4993261;28;20383;-84
2021/09/06 05:44:58;;;;;;;13.07;7.78;;;14.40;99.90;;;;;;4994380;28;20037;-84
2021/09/06 05:47:23;;;;;;;11.57;7.18;;;14.60;99.90;;;;;;4993284;28;20025;-84
2021/09/06 05:49:49;;;;;;;10.95;7.47;;;14.60;99.90;;;;;;4992890;28;20150;-84
2021/09/06 05:52:15;;;;;;;11.68;7.18;;;14.70;99.90;;;;;;4993065;28;20076;-85
2021/09/06 05:54:41;;;;;;;11.50;7.03;;;14.70;99.90;;;;;;4994289;28;20475;-84
2021/09/06 05:57:06;;;;;;;10.32;6.40;;;14.80;99.90;;;;;;4993617;28;20347;-84
2021/09/06 05:59:32;;;;;;;11.45;6.40;;;14.70;99.90;;;;;;4992394;28;20104;-84
2021/09/06 06:01:58;;;;;;;9.23;5.75;;;14.90;99.90;;;;;;4992761;28;20061;-84
2021/09/06 06:04:23;;;;;;;8.93;5.95;;;15.00;99.90;;;;;;4993980;28;20029;-84
2021/09/06 06:06:49;;;;;;;12.10;6.75;;;15.10;99.90;;;;;;4993443;28;20018;-84
2021/09/06 06:09:14;;;;;;;10.00;6.40;;;15.20;99.90;;;;;;4976154;28;20124;-84
2021/09/06 06:11:41;;;;;;;13.68;6.53;;;15.30;99.90;;;;;;4976461;28;20022;-84
2021/09/06 06:14:07;;;;;;;14.15;6.75;;;15.30;99.90;;;;;;4985319;28;20093;-84
2021/09/06 06:16:33;;;;;;;9.77;5.82;;;15.40;99.90;;;;;;4976469;28;20413;-84
2021/09/06 06:18:59;;;;;;;12.55;6.45;;;15.50;99.90;;;;;;4992031;28;20022;-85
2021/09/06 06:21:25;;;;;;;10.10;6.30;;;15.60;99.90;;;;;;4992316;28;20088;-84
2021/09/06 06:23:50;;;;;;;13.25;7.40;;;15.70;99.90;;;;;;4992084;28;20026;-84
2021/09/06 06:26:16;;;;;;;14.93;6.43;;;15.70;99.90;;;;;;4992378;28;20022;-84
2021/09/06 06:28:42;;;;;;;10.15;6.38;;;15.80;99.90;;;;;;4993239;28;20081;-85
2021/09/06 06:31:08;;;;;;;10.65;6.80;;;15.90;99.90;;;;;;4995983;28;20442;-85
2021/09/06 06:33:34;;;;;;;9.85;6.53;;;16.00;99.90;;;;;;4998158;28;20031;-85
2021/09/06 06:36:01;;;;;;;11.38;6.00;;;16.00;99.90;;;;;;4993268;28;20038;-84
2021/09/06 06:38:27;;;;;;;10.13;6.30;;;16.00;99.90;;;;;;4993457;28;20518;-84
2021/09/06 06:40:53;;;;;;;12.73;7.07;;;16.10;99.90;;;;;;4993205;28;20038;-84
2021/09/06 06:43:19;;;;;;;14.20;6.45;;;16.20;99.90;;;;;;4994277;28;20015;-85
2021/09/06 06:45:44;;;;;;;10.65;6.70;;;16.30;99.90;;;;;;4992598;28;20030;-86
2021/09/06 06:48:10;;;;;;;10.43;6.85;;;16.40;99.90;;;;;;4992944;28;20494;-86
2021/09/06 06:50:36;;;;;;;13.43;7.55;;;16.50;99.90;;;;;;4993847;28;20042;-86
2021/09/06 06:53:01;;;;;;;13.15;7.20;;;16.60;99.90;;;;;;4992307;28;20120;-87
2021/09/06 06:55:27;;;;;;;14.35;7.68;;;16.60;99.90;;;;;;5016548;23;20480;-83
2021/09/06 06:57:52;;;;;;;12.48;6.93;;;16.70;99.90;;;;;;4981092;28;20022;-83
2021/09/06 07:00:18;;;;;;;16.40;8.98;;;16.90;99.90;;;;;;4991796;28;20487;-84
2021/09/06 07:02:44;;;;;;;11.35;7.50;;;16.90;99.90;;;;;;4990079;28;20022;-83
2021/09/06 07:05:10;;;;;;;11.35;7.28;;;16.90;99.90;;;;;;5004634;28;20042;-84
2021/09/06 07:07:36;;;;;;;11.15;7.50;;;16.90;99.90;;;;;;4993490;28;20085;-81
2021/09/06 07:10:02;;;;;;;11.23;7.47;;;16.80;99.90;;;;;;4993641;28;20022;-82
2021/09/06 07:12:27;;;;;;;11.63;7.40;;;17.00;99.90;;;;;;5005945;28;20056;-84
2021/09/06 07:14:53;;;;;;;12.10;7.68;;;16.80;99.90;;;;;;4991439;28;20133;-82
2021/09/06 07:17:19;;;;;;;10.88;7.47;;;16.90;99.90;;;;;;4992337;28;20026;-82
2021/09/06 07:19:44;;;;;;;15.07;7.15;;;17.00;99.90;;;;;;4993478;28;20022;-84
2021/09/06 07:22:12;;;;;;;9.52;6.30;;;17.10;99.90;;;;;;4993224;28;20037;-84
2021/09/06 07:24:38;;;;;;;8.98;5.82;;;17.30;99.90;;;;;;4992247;28;20038;-83
2021/09/06 07:27:03;;;;;;;9.35;5.97;;;17.40;99.90;;;;;;4993890;28;20034;-84
2021/09/06 07:29:29;;;;;;;10.20;6.15;;;17.60;99.90;;;;;;4981698;28;20396;-83
2021/09/06 07:31:55;;;;;;;13.02;6.30;;;17.70;99.90;;;;;;4973682;28;20447;-84
2021/09/06 07:34:20;;;;;;;12.13;6.68;;;17.60;99.90;;;;;;4972766;28;20030;-83
2021/09/06 07:36:46;;;;;;;12.20;6.15;;;17.40;99.90;;;;;;4972991;28;20109;-82
2021/09/06 07:39:12;;;;;;;12.07;5.88;;;17.40;99.90;;;;;;4973174;28;20038;-83
2021/09/06 07:41:38;;;;;;;11.05;6.03;;;17.50;99.90;;;;;;4980559;28;20039;-82
2021/09/06 07:44:04;;;;;;;9.90;5.63;;;17.50;99.90;;;;;;4993221;28;20045;-83
2021/09/06 07:46:29;;;;;;;9.05;5.43;;;17.50;99.90;;;;;;4993299;28;20058;-82
2021/09/06 07:48:55;;;;;;;9.52;5.53;;;17.70;99.90;;;;;;4992456;28;20022;-83
2021/09/06 07:51:21;;;;;;;9.88;5.30;;;17.80;99.90;;;;;;4991839;28;20113;-84
2021/09/06 07:53:46;;;;;;;9.98;5.00;;;18.10;99.90;;;;;;4992539;28;20418;-83
2021/09/06 07:56:12;;;;;;;8.50;4.78;;;18.20;99.90;;;;;;5011837;28;20537;-84
2021/09/06 07:58:38;;;;;;;8.93;5.38;;;18.40;99.90;;;;;;5012638;28;20061;-83
2021/09/06 08:01:03;;;;;;;7.40;4.53;;;18.60;99.90;;;;;;5010686;28;20030;-83
2021/09/06 08:03:29;;;;;;;11.80;5.05;;;18.80;99.90;;;;;;4994267;28;20467;-83
2021/09/06 08:05:55;;;;;;;9.30;5.07;;;19.00;99.90;;;;;;4993931;28;20034;-83
2021/09/06 08:08:20;;;;;;;10.40;5.28;;;19.00;99.90;;;;;;4993774;28;20022;-83
2021/09/06 08:10:46;;;;;;;9.10;4.85;;;18.90;99.90;;;;;;5010981;28;20105;-83
2021/09/06 08:13:12;;;;;;;8.93;4.90;;;18.70;99.90;;;;;;5008517;28;20041;-83
2021/09/06 08:15:38;;;;;;;9.40;5.40;;;18.80;99.90;;;;;;4994155;28;20026;-84
2021/09/06 08:18:04;;;;;;;11.52;5.22;;;18.60;99.90;;;;;;4985738;28;20018;-83
2021/09/06 08:20:30;;;;;;;8.35;5.15;;;18.50;99.90;;;;;;4974537;28;20023;-83
2021/09/06 08:22:56;;;;;;;8.93;5.15;;;18.70;99.90;;;;;;4974750;28;20084;-83
2021/09/06 08:25:21;;;;;;;7.88;4.47;;;18.90;99.90;;;;;;4993312;28;20041;-83
2021/09/06 08:27:47;;;;;;;10.35;4.80;;;19.10;99.90;;;;;;5011208;28;20033;-83
2021/09/06 08:30:13;;;;;;;8.50;4.70;;;19.40;99.90;;;;;;4993715;28;20026;-83
2021/09/06 08:32:40;;;;;;;8.07;4.57;;;19.70;99.90;;;;;;4993789;28;20030;-83
2021/09/06 08:35:07;;;;;;;10.55;4.68;;;19.90;99.90;;;;;;5010662;28;20022;-83
2021/09/06 08:37:33;;;;;;;9.73;4.35;;;20.10;99.90;;;;;;4993701;28;20024;-83
2021/09/06 08:39:59;;;;;;;8.30;4.78;;;20.20;99.90;;;;;;4973563;28;20495;-84
2021/09/06 08:42:24;;;;;;;7.85;4.53;;;20.40;99.90;;;;;;4991541;28;20383;-85
2021/09/06 08:44:50;;;;;;;8.50;4.78;;;20.40;99.90;;;;;;4990119;28;20428;-83
2021/09/06 08:47:16;;;;;;;8.00;4.50;;;20.70;99.90;;;;;;4977826;28;20092;-83
2021/09/06 08:49:44;;;;;;;10.02;5.00;;;20.80;99.90;;;;;;4996817;28;20113;-83
2021/09/06 08:52:09;;;;;;;9.30;4.80;;;21.10;99.90;;;;;;4997763;28;20030;-83
2021/09/06 08:54:35;;;;;;;9.00;4.47;;;21.10;99.90;;;;;;4997522;28;20091;-84
2021/09/06 08:57:01;;;;;;;11.30;4.82;;;21.10;99.90;;;;;;4997606;28;20040;-84
2021/09/06 08:59:26;;;;;;;7.32;4.63;;;21.30;99.90;;;;;;5014981;28;20037;-84
2021/09/06 09:01:52;;;;;;;8.82;5.00;;;21.40;99.90;;;;;;5014911;28;20036;-84
2021/09/06 09:04:27;;;;;;;9.10;4.18;;;21.50;99.90;;;;;;5015614;28;20025;-83
2021/09/06 09:06:54;;;;;;;9.18;4.90;;;21.70;99.90;;;;;;4998080;28;20041;-83
2021/09/06 09:09:25;;;;;;;8.60;5.32;;;21.80;99.90;;;;;;5017168;28;20030;-83
2021/09/06 09:12:21;;;;;;;9.23;5.63;;;21.80;99.90;;;;;;5015999;28;20108;-83
2021/09/06 09:14:48;;;;;;;8.63;4.93;;;22.10;99.90;;;;;;4980094;28;20033;-83
2021/09/06 09:17:14;;;;;;;9.80;4.35;;;22.00;99.90;;;;;;5016145;28;20034;-85
2021/09/06 09:19:40;;;;;;;13.48;5.40;;;22.30;99.90;;;;;;5015354;28;20109;-85
2021/09/06 09:22:18;;;;;;;8.23;5.15;;;22.40;99.90;;;;;;5015886;28;20069;-85
2021/09/06 09:24:55;;;;;;;9.25;5.45;;;22.60;99.90;;;;;;4996161;28;20038;-85
2021/09/06 09:27:30;;;;;;;7.28;4.63;;;22.80;99.60;;;;;;4995820;28;20037;-85
2021/09/06 09:29:56;;;;;;;10.00;4.90;;;22.80;98.70;;;;;;4996048;28;20026;-85
2021/09/06 09:32:22;;;;;;;9.30;4.95;;;23.00;99.20;;;;;;5001771;28;20545;-85
2021/09/06 09:34:47;;;;;;;8.77;4.68;;;23.00;99.30;;;;;;5015733;28;20025;-85
2021/09/06 09:37:23;;;;;;;9.25;4.65;;;23.30;98.80;;;;;;5015825;28;20434;-85
2021/09/06 09:39:56;;;;;;;6.22;3.90;;;23.40;98.60;;;;;;5015194;28;20033;-85
2021/09/06 09:42:23;;;;;;;10.60;4.50;;;23.50;97.90;;;;;;4988229;28;20027;-85
2021/09/06 09:44:51;;;;;;;7.28;4.10;;;23.60;97.60;;;;;;4995391;28;20432;-84
2021/09/06 09:47:23;;;;;;;6.38;4.00;;;23.80;96.70;;;;;;4996273;28;20109;-83
2021/09/06 09:49:49;;;;;;;8.32;4.05;;;23.90;96.60;;;;;;5006128;28;20097;-84
2021/09/06 09:52:17;;;;;;;6.70;4.25;;;24.00;95.60;;;;;;5006352;28;20076;-84
2021/09/06 09:54:43;;;;;;;8.65;4.35;;;24.20;95.60;;;;;;5024082;28;20045;-82
2021/09/06 09:57:10;;;;;;;7.40;3.95;;;24.30;94.20;;;;;;5023409;28;20034;-85
2021/09/06 09:59:36;;;;;;;9.85;4.07;;;24.30;94.50;;;;;;5019126;28;20079;-85
2021/09/06 10:02:13;;;;;;;6.40;3.67;;;24.30;93.40;;;;;;5004997;28;20473;-83
2021/09/06 10:05:02;;;;;;;6.60;4.00;;;24.40;93.00;;;;;;4986019;28;20078;-85
2021/09/06 10:07:36;;;;;;;6.07;4.03;;;24.50;92.80;;;;;;4991114;28;20040;-85
2021/09/06 10:10:17;;;;;;;7.75;4.03;;;24.70;92.50;;;;;;5005987;28;20029;-84
2021/09/06 10:12:44;;;;;;;7.20;4.20;;;24.90;93.00;;;;;;5002941;28;20026;-83
2021/09/06 10:15:11;;;;;;;7.38;4.60;;;25.00;91.30;;;;;;5020180;28;20072;-84
2021/09/06 10:17:48;;;;;;;6.95;4.30;;;25.10;92.00;;;;;;5018997;28;20030;-83
2021/09/06 10:20:13;;;;;;;7.43;4.93;;;25.20;91.70;;;;;;5020639;28;20043;-84
2021/09/06 10:22:41;;;;;;;7.85;4.57;;;25.40;91.30;;;;;;5002644;28;20079;-85
2021/09/06 10:25:09;;;;;;;8.02;4.68;;;25.30;91.10;;;;;;5019209;28;20026;-84
2021/09/06 10:27:37;;;;;;;6.65;3.95;;;25.50;91.10;;;;;;5019384;28;20030;-84
2021/09/06 10:30:08;;;;;;;7.85;4.25;;;25.40;90.90;;;;;;5020037;28;20034;-83
2021/09/06 10:32:45;;;;;;;8.82;4.50;;;25.50;91.90;;;;;;5020587;28;20103;-83
2021/09/06 10:35:23;;;;;;;8.90;4.53;;;25.60;91.10;;;;;;5017744;28;20030;-83
2021/09/06 10:38:18;;;;;;;6.57;4.28;;;25.90;91.60;;;;;;5020024;28;20026;-83
2021/09/06 10:40:45;;;;;;;7.93;4.28;;;25.70;90.40;;;;;;5002756;28;20033;-82
2021/09/06 10:43:15;;;;;;;7.47;4.30;;;25.90;90.30;;;;;;5019451;28;20018;-83
2021/09/06 10:45:43;;;;;;;7.40;4.15;;;25.70;90.80;;;;;;5002329;28;20093;-84
2021/09/06 10:48:14;;;;;;;6.63;4.20;;;25.70;91.60;;;;;;5017678;28;20026;-82
2021/09/06 10:50:42;;;;;;;;;;;25.90;90.80;;;;;;5020285;28;20076;-84
2021/09/06 10:53:08;;;;;;;8.55;4.70;;;26.20;90.40;;;;;;5018772;28;19931;-84
2021/09/06 10:55:34;;;;;;;7.75;4.53;;;26.10;90.40;;;;;;5019577;28;20041;-83
2021/09/06 10:58:00;;;;;;;7.60;4.43;;;26.20;88.90;;;;;;5025962;28;20049;-83
2021/09/06 11:00:25;;;;;;;6.43;4.38;;;26.20;89.90;;;;;;5031882;28;20010;-83
2021/09/06 11:02:52;;;;;;;7.85;4.70;;;26.50;90.80;;;;;;5003804;28;20038;-83
2021/09/06 11:05:23;;;;;;;9.10;4.40;;;26.60;88.00;;;;;;5011766;28;20105;-83
2021/09/06 11:07:49;;;;;;;7.28;4.05;;;26.70;87.70;;;;;;5024018;28;20121;-84
2021/09/06 11:10:19;;;;;;;7.15;4.43;;;26.70;87.50;;;;;;5020137;28;20036;-82
2021/09/06 11:12:56;;;;;;;7.70;4.50;;;26.80;87.70;;;;;;5008997;28;20076;-83
2021/09/06 11:15:33;;;;;;;6.40;4.30;;;26.60;87.00;;;;;;5024322;28;20176;-83
2021/09/06 11:18:04;;;;;;;6.25;3.92;;;26.30;87.40;;;;;;5020803;28;20021;-82
2021/09/06 11:20:32;;;;;;;7.15;3.97;;;26.60;85.70;;;;;;5021088;28;20030;-83
2021/09/06 11:22:59;;;;;;;9.85;4.70;;;26.70;85.40;;;;;;5026465;28;20371;-82
2021/09/06 11:25:28;;;;;;;8.73;4.85;;;26.50;84.50;;;;;;5032595;28;20029;-84
2021/09/06 11:28:12;;;;;;;8.23;4.35;;;26.40;85.70;;;;;;5030362;28;20022;-84
2021/09/06 11:30:39;;;;;;;6.63;4.38;;;26.60;85.90;;;;;;5025489;28;20028;-83
2021/09/06 11:33:09;;;;;;;8.10;4.70;;;26.40;84.50;;;;;;5003805;28;20030;-85
2021/09/06 11:35:39;;;;;;;6.70;4.30;;;26.50;83.90;;;;;;5028697;28;20030;-84
2021/09/06 11:38:05;;;;;;;7.67;4.60;;;26.60;81.90;;;;;;5020841;28;20061;-84
2021/09/06 11:40:35;;;;;;;7.43;4.38;;;26.80;84.30;;;;;;5005042;28;20761;-83
2021/09/06 11:43:03;;;;;;;7.75;4.97;;;27.00;83.50;;;;;;5026832;28;20030;-83
2021/09/06 11:45:29;;;;;;;8.32;4.63;;;26.90;83.00;;;;;;5025468;28;20034;-86
2021/09/06 11:48:08;;;;;;;7.00;4.15;;;27.20;85.10;;;;;;5029665;28;20298;-84
2021/09/06 11:50:40;;;;;;;5.90;4.00;;;27.50;86.70;;;;;;5028564;28;20041;-83
2021/09/06 11:53:09;;;;;;;8.10;4.18;;;27.70;81.70;;;;;;5021794;28;20022;-84
2021/09/06 11:55:35;;;;;;;8.98;4.88;;;27.40;81.20;;;;;;5017129;28;20643;-83
2021/09/06 11:58:10;;;;;;;6.65;4.10;;;26.80;81.20;;;;;;5020179;28;20172;-84
2021/09/06 12:00:39;;;;;;;6.13;3.95;;;26.40;82.50;;;;;;5007148;28;20018;-82
2021/09/06 12:03:07;;;;;;;6.43;3.70;;;26.40;80.90;;;;;;5022268;28;20026;-83
2021/09/06 12:05:41;;;;;;;6.38;4.18;;;26.70;80.60;;;;;;5000774;28;20033;-83
2021/09/06 12:08:14;;;;;;;7.63;4.63;;;27.20;79.60;;;;;;5003817;28;20026;-83
2021/09/06 12:10:41;;;;;;;6.35;3.95;;;27.50;80.20;;;;;;5005246;28;20026;-83
2021/09/06 12:13:19;;;;;;;6.78;4.38;;;27.70;80.90;;;;;;5007237;28;20014;-83
2021/09/06 12:15:52;;;;;;;7.75;4.47;;;28.00;78.70;;;;;;5027211;28;20068;-83
2021/09/06 12:18:18;;;;;;;8.70;4.60;;;28.20;76.40;;;;;;5027838;28;20085;-83
2021/09/06 12:20:44;;;;;;;7.55;4.22;;;28.50;75.70;;;;;;5027275;28;20057;-83
2021/09/06 12:23:26;;;;;;;5.90;3.75;;;28.30;74.10;;;;;;5028573;28;20037;-83
2021/09/06 12:25:52;;;;;;;6.82;3.50;;;28.70;76.00;;;;;;5027319;28;20017;-83
2021/09/06 12:28:18;;;;;;;6.60;4.35;;;28.90;73.90;;;;;;5022760;28;20033;-84
2021/09/06 12:30:54;;;;;;;5.57;4.00;;;28.80;73.60;;;;;;5024623;28;20026;-84
2021/09/06 12:33:19;;;;;;;7.45;4.00;;;28.50;73.20;;;;;;5025677;28;20018;-83
2021/09/06 12:35:45;;;;;;;6.95;3.95;;;28.50;73.50;;;;;;5026543;28;20034;-84
2021/09/06 12:38:11;;;;;;;6.63;3.70;;;28.60;74.80;;;;;;5025763;28;20034;-84
2021/09/06 12:40:36;;;;;;;5.53;3.72;;;28.70;73.80;;;;;;5022915;28;20021;-84
2021/09/06 12:43:02;;;;;;;6.43;3.53;;;28.60;72.40;;;;;;5007863;28;20478;-84